Time;durP1;ratioP1;P1;durP2;ratioP2;P2;SDS_P1;SDS_P2;PMS_P1;PMS_P2;Temp;Humidity;BMP_temperature;BMP_pressure;BME280_temperature;BME280_humidity;BME280_pressure;Samples;Min_cycle;Max_cycle;Signal;HPM_P1;HPM_P2
2022/06/25 00:01:53;;;;;;;6.30;3.60;;;;;;;18.92;60.37;97960.95;106539;1280;22910;-84
2022/06/25 00:07:04;;;;;;;4.00;3.40;;;;;;;18.84;60.79;97961.25;106386;1280;25635;-84
2022/06/25 00:09:31;;;;;;;4.70;4.00;;;;;;;18.80;60.99;97963.46;106208;1280;137245;-84
2022/06/25 00:14:38;;;;;;;9.80;3.80;;;;;;;18.76;61.29;97964.77;106373;1279;22766;-84
2022/06/25 00:17:06;;;;;;;6.30;3.50;;;;;;;18.74;61.24;97962.98;106151;1279;138449;-84
2022/06/25 00:19:32;;;;;;;5.10;3.60;;;;;;;18.75;61.18;97959.37;106257;1280;22553;-84
2022/06/25 00:21:59;;;;;;;4.20;3.30;;;;;;;18.75;61.19;97958.75;106231;1279;137173;-85
2022/06/25 00:24:25;;;;;;;4.40;4.00;;;;;;;18.76;61.17;97954.27;106665;1280;23263;-85
2022/06/25 00:26:54;;;;;;;4.30;3.70;;;;;;;18.75;61.20;97955.45;106604;1277;22550;-84
2022/06/25 00:29:38;;;;;;;5.10;3.40;;;;;;;18.73;61.15;97950.27;106433;1280;22554;-84
2022/06/25 00:32:09;;;;;;;4.50;3.60;;;;;;;18.70;61.21;97947.23;106441;1279;24294;-83
2022/06/25 00:34:40;;;;;;;4.60;4.00;;;;;;;18.67;61.23;97952.71;106109;1279;137221;-83
2022/06/25 00:37:08;;;;;;;6.20;3.90;;;;;;;18.65;61.35;97949.42;106351;1279;24470;-83
2022/06/25 00:39:37;;;;;;;5.40;3.70;;;;;;;18.61;61.48;97952.20;106199;1279;138230;-84
2022/06/25 00:42:12;;;;;;;4.90;3.50;;;;;;;18.55;61.60;97951.11;106344;1280;22594;-84
2022/06/25 00:44:38;;;;;;;7.00;4.20;;;;;;;18.52;61.68;97946.21;106423;1280;24233;-83
2022/06/25 00:47:08;;;;;;;6.80;3.90;;;;;;;18.49;61.74;97942.10;106083;1280;137387;-83
2022/06/25 00:49:35;;;;;;;6.50;4.30;;;;;;;18.46;61.71;97944.92;105979;1280;24221;-84
2022/06/25 00:52:15;;;;;;;6.50;3.90;;;;;;;18.43;61.84;97945.93;106182;1279;137066;-85
2022/06/25 00:55:16;;;;;;;7.60;3.90;;;;;;;18.38;62.07;97945.26;106016;1279;22550;-85
2022/06/25 00:57:44;;;;;;;3.70;3.30;;;;;;;18.33;62.17;97947.23;106157;1279;137579;-85
2022/06/25 01:00:15;;;;;;;5.80;4.40;;;;;;;18.29;62.28;97949.30;106017;1279;22575;-85
2022/06/25 01:02:42;;;;;;;;;;;;;;;18.27;62.29;97948.35;106190;1279;22564;-85
2022/06/25 01:05:13;;;;;;;8.50;4.00;;;;;;;18.23;62.60;97954.29;106072;1280;123414;-83
2022/06/25 01:07:44;;;;;;;6.10;3.80;;;;;;;18.19;62.65;97954.38;106077;1280;22562;-84
2022/06/25 01:10:13;;;;;;;4.10;3.60;;;;;;;18.16;62.74;97950.23;106002;1280;137962;-84
2022/06/25 01:12:39;;;;;;;5.40;3.90;;;;;;;18.15;62.83;97948.59;106157;1279;22569;-84
2022/06/25 01:15:08;;;;;;;5.60;3.90;;;;;;;18.15;62.99;97945.61;105967;1278;138365;-84
2022/06/25 01:17:40;;;;;;;5.80;4.00;;;;;;;18.14;62.95;97945.80;106014;1279;25326;-84
2022/06/25 01:20:07;;;;;;;4.60;4.00;;;;;;;18.13;63.04;97946.55;106001;1279;24426;-84
2022/06/25 01:22:34;;;;;;;5.50;4.20;;;;;;;18.12;63.08;97951.92;106000;1280;137412;-84
2022/06/25 01:25:00;;;;;;;5.60;4.10;;;;;;;18.09;63.07;97951.70;106063;1280;23918;-84
2022/06/25 01:27:28;;;;;;;6.70;4.00;;;;;;;18.08;63.18;97952.55;105990;1280;137615;-84
2022/06/25 01:29:54;;;;;;;5.10;3.70;;;;;;;18.06;63.43;97951.33;106050;1278;22821;-85
2022/06/25 01:32:21;;;;;;;5.10;4.10;;;;;;;18.02;63.39;97947.65;106255;1280;23349;-85
2022/06/25 01:34:49;;;;;;;5.50;4.40;;;;;;;18.01;63.38;97951.33;105929;1279;137548;-85
2022/06/25 01:37:17;;;;;;;4.70;4.00;;;;;;;17.98;63.58;97949.66;106060;1279;22864;-84
2022/06/25 01:39:44;;;;;;;5.40;4.00;;;;;;;17.96;63.73;97949.77;106119;1279;139128;-85
2022/06/25 01:44:52;;;;;;;5.80;3.70;;;;;;;17.93;63.85;97946.63;106201;1279;23964;-85
2022/06/25 01:47:18;;;;;;;8.40;3.90;;;;;;;17.93;63.77;97952.69;106241;1279;25625;-85
2022/06/25 01:49:59;;;;;;;5.50;4.30;;;;;;;17.93;64.03;97955.11;106208;1280;22764;-86
2022/06/25 01:52:26;;;;;;;5.70;4.10;;;;;;;17.92;64.01;97962.33;106172;1280;137273;-85
2022/06/25 01:54:52;;;;;;;6.80;4.40;;;;;;;17.92;64.01;97963.73;106453;1279;22709;-85
2022/06/25 01:57:18;;;;;;;7.70;4.00;;;;;;;17.90;63.99;97968.61;105985;1279;137611;-85
2022/06/25 01:59:47;;;;;;;5.80;4.40;;;;;;;17.87;63.96;97970.66;106020;1279;22641;-85
2022/06/25 02:02:16;;;;;;;5.30;4.20;;;;;;;17.83;64.05;97973.34;106079;1279;22554;-85
2022/06/25 02:04:47;;;;;;;4.60;4.00;;;;;;;17.77;63.99;97972.19;106227;1279;137919;-85
2022/06/25 02:07:13;;;;;;;;;;;;;;;17.73;64.22;97975.45;106281;1280;22666;-85
2022/06/25 02:09:39;;;;;;;6.40;4.30;;;;;;;17.67;64.39;97973.10;106012;1280;123614;-85
2022/06/25 02:12:09;;;;;;;6.60;4.30;;;;;;;17.62;64.64;97978.73;106221;1280;22547;-85
2022/06/25 02:14:38;;;;;;;7.40;4.60;;;;;;;17.56;64.75;97980.73;106142;1280;23070;-85
2022/06/25 02:17:04;;;;;;;;;;;;;;;17.53;64.95;97979.73;105885;1279;137956;-85
2022/06/25 02:19:31;;;;;;;5.20;3.90;;;;;;;17.50;65.08;97983.53;106071;1279;22758;-85
2022/06/25 02:21:57;;;;;;;5.00;4.40;;;;;;;17.49;65.39;97979.85;105819;1279;137717;-86
2022/06/25 02:24:24;;;;;;;4.90;4.40;;;;;;;17.49;65.45;97978.64;106331;1279;23233;-86
2022/06/25 02:26:53;;;;;;;7.20;4.10;;;;;;;17.48;65.43;97981.04;106043;1280;25338;-85
2022/06/25 02:29:19;;;;;;;8.40;4.10;;;;;;;17.46;65.37;97985.29;106182;1280;137213;-86
2022/06/25 02:31:48;;;;;;;6.70;4.10;;;;;;;17.45;65.58;97987.35;106057;1280;22560;-86
2022/06/25 02:34:15;;;;;;;4.90;4.40;;;;;;;17.44;65.55;97986.70;106305;1279;137300;-86
2022/06/25 02:36:42;;;;;;;6.10;4.30;;;;;;;17.43;65.51;97990.25;106440;1277;24142;-85
2022/06/25 02:39:10;;;;;;;8.20;4.90;;;;;;;17.40;65.54;97988.30;106123;1279;137443;-86
2022/06/25 02:41:36;;;;;;;8.60;4.30;;;;;;;17.39;65.57;97990.27;106349;1279;22564;-86
2022/06/25 02:44:04;;;;;;;6.30;3.90;;;;;;;17.37;65.67;97989.42;106151;1279;25437;-86
2022/06/25 02:46:36;;;;;;;4.70;4.20;;;;;;;17.37;65.74;97988.86;106084;1280;138015;-86
2022/06/25 02:49:03;;;;;;;6.70;4.20;;;;;;;17.37;65.69;97992.82;106032;1280;26531;-86
2022/06/25 02:51:30;;;;;;;8.00;4.50;;;;;;;17.38;65.80;97987.91;106112;1277;137611;-86
2022/06/25 02:54:01;;;;;;;5.50;3.80;;;;;;;17.37;65.92;97988.25;106372;1280;23586;-86
2022/06/25 02:59:22;;;;;;;12.10;4.30;;;;;;;17.33;66.21;97987.31;106335;1279;25377;-85
2022/06/25 03:01:55;;;;;;;7.10;4.10;;;;;;;17.32;66.23;97984.06;106018;1279;26504;-87
2022/06/25 03:04:24;;;;;;;5.30;4.20;;;;;;;17.30;66.33;97986.90;106170;1279;137080;-88
2022/06/25 03:06:53;;;;;;;5.70;4.30;;;;;;;17.29;66.57;97987.35;106209;1279;22663;-87
2022/06/25 03:09:20;;;;;;;9.80;4.40;;;;;;;17.27;66.57;97992.27;106127;1280;138248;-86
2022/06/25 03:11:46;;;;;;;4.80;4.30;;;;;;;17.25;66.68;97991.04;106108;1278;24287;-88
2022/06/25 03:14:13;;;;;;;6.10;5.00;;;;;;;17.25;66.61;97993.58;106216;1280;24958;-86
2022/06/25 03:16:44;;;;;;;7.00;4.70;;;;;;;17.23;66.46;97992.39;106088;1279;137081;-86
2022/06/25 03:19:15;;;;;;;4.60;4.00;;;;;;;17.22;66.70;97990.37;106225;1279;22596;-86
2022/06/25 03:22:05;;;;;;;5.90;4.70;;;;;;;17.23;67.11;97993.55;106014;1277;137313;-86
2022/06/25 03:24:33;;;;;;;5.80;4.40;;;;;;;17.23;67.13;97995.75;106735;1277;22723;-86
2022/06/25 03:27:01;;;;;;;5.80;4.90;;;;;;;17.22;67.31;97993.80;106751;1277;137516;-86
2022/06/25 03:29:32;;;;;;;6.10;4.20;;;;;;;17.21;67.37;97991.94;106505;1279;25354;-87
2022/06/25 03:32:03;;;;;;;8.00;4.30;;;;;;;17.20;67.56;97986.77;106699;1279;25410;-86
2022/06/25 03:34:44;;;;;;;5.90;4.10;;;;;;;17.22;67.79;97988.55;106767;1277;137470;-88
2022/06/25 03:37:11;;;;;;;8.90;4.50;;;;;;;17.25;67.83;97992.14;106530;1280;23855;-87
2022/06/25 03:39:38;;;;;;;5.50;4.60;;;;;;;17.29;67.74;97997.14;106650;1277;137463;-87
2022/06/25 03:42:05;;;;;;;7.80;3.70;;;;;;;17.32;67.74;97996.70;106427;1280;22652;-86
2022/06/25 03:44:54;;;;;;;4.70;3.90;;;;;;;17.37;67.79;97999.10;106491;1280;23386;-85
2022/06/25 03:47:30;;;;;;;6.60;4.20;;;;;;;17.39;67.67;98000.42;106296;1279;22569;-86
2022/06/25 03:50:01;;;;;;;5.90;4.70;;;;;;;17.41;67.70;98003.82;106177;1281;25388;-86
2022/06/25 03:52:27;;;;;;;5.00;4.40;;;;;;;17.42;67.85;98001.33;106120;1278;137896;-87
2022/06/25 03:54:54;;;;;;;6.00;4.40;;;;;;;17.47;67.87;98002.78;106221;1280;23679;-86
2022/06/25 03:57:21;;;;;;;4.90;4.30;;;;;;;17.51;67.95;98010.16;106419;1280;137654;-85
2022/06/25 04:00:11;;;;;;;6.10;4.70;;;;;;;17.58;67.61;98009.64;106242;1279;23320;-85
2022/06/25 04:02:44;;;;;;;6.30;4.40;;;;;;;17.67;67.67;98012.20;106386;1279;22785;-85
2022/06/25 04:05:24;;;;;;;5.20;4.20;;;;;;;17.74;67.41;98016.80;106593;1278;24274;-85
2022/06/25 04:07:52;;;;;;;6.10;4.20;;;;;;;17.81;67.10;98016.55;106347;1279;22765;-85
2022/06/25 04:10:19;;;;;;;6.90;4.10;;;;;;;17.90;67.02;98022.81;106335;1280;137688;-85
2022/06/25 04:12:45;;;;;;;5.00;4.20;;;;;;;17.98;66.88;98023.66;106640;1280;22596;-85
2022/06/25 04:15:11;;;;;;;5.30;3.50;;;;;;;18.06;66.75;98025.07;106159;1280;137857;-84
2022/06/25 04:17:50;;;;;;;4.50;4.00;;;;;;;18.13;66.44;98020.98;106278;1279;25651;-85
2022/06/25 04:20:17;;;;;;;5.70;4.20;;;;;;;18.21;66.27;98017.34;106381;1281;25528;-86
2022/06/25 04:22:43;;;;;;;4.50;3.90;;;;;;;18.29;65.97;98017.23;106250;1281;138060;-85
2022/06/25 04:25:10;;;;;;;4.60;4.00;;;;;;;18.39;66.03;98013.06;106380;1279;22831;-87
2022/06/25 04:30:19;;;;;;;7.00;4.50;;;;;;;18.59;65.47;98019.65;106339;1277;22719;-84
2022/06/25 04:32:48;;;;;;;;;;;;;;;18.67;65.34;98022.52;106528;1280;24272;-84
2022/06/25 04:35:17;;;;;;;5.50;3.80;;;;;;;18.72;65.08;98016.51;106654;1280;123770;-85
2022/06/25 04:37:44;;;;;;;5.40;4.30;;;;;;;18.78;64.99;98012.84;106340;1279;23184;-84
2022/06/25 04:40:14;;;;;;;4.80;3.80;;;;;;;18.85;65.06;98015.20;106406;1281;136935;-85
2022/06/25 04:42:45;;;;;;;4.80;4.20;;;;;;;18.90;65.07;98010.02;106435;1279;22736;-85
2022/06/25 04:45:12;;;;;;;4.50;4.00;;;;;;;18.94;65.00;98016.92;106500;1281;137853;-85
2022/06/25 04:48:01;;;;;;;9.00;4.30;;;;;;;19.01;64.98;98014.56;106213;1280;22544;-84
2022/06/25 04:50:43;;;;;;;5.50;3.70;;;;;;;19.07;64.55;98016.40;106509;1280;22681;-85
2022/06/25 04:53:12;;;;;;;5.30;4.40;;;;;;;19.13;64.40;98017.90;106533;1280;138109;-85
2022/06/25 04:55:39;;;;;;;4.90;4.20;;;;;;;19.21;64.24;98019.89;106335;1280;23383;-85
2022/06/25 04:58:05;;;;;;;5.80;4.20;;;;;;;19.27;64.25;98021.01;106624;1279;137338;-84
2022/06/25 05:00:47;;;;;;;4.50;4.10;;;;;;;19.34;64.00;98022.94;106531;1279;23535;-85
2022/06/25 05:03:13;;;;;;;7.10;4.00;;;;;;;19.39;63.73;98023.89;106345;1279;138082;-85
2022/06/25 05:05:47;;;;;;;7.10;3.70;;;;;;;19.43;63.79;98021.61;106349;1279;22544;-84
2022/06/25 05:08:14;;;;;;;6.20;4.60;;;;;;;19.49;63.49;98022.63;106238;1280;22567;-85
2022/06/25 05:10:41;;;;;;;5.50;4.10;;;;;;;19.54;63.21;98028.09;106519;1280;137235;-84
2022/06/25 05:13:13;;;;;;;4.60;4.10;;;;;;;19.59;63.16;98029.84;106473;1280;23331;-85
2022/06/25 05:15:43;;;;;;;7.40;4.20;;;;;;;19.64;63.38;98027.11;106193;1277;137863;-84
2022/06/25 05:18:12;;;;;;;8.30;3.60;;;;;;;19.70;63.31;98027.98;106373;1280;22601;-85
2022/06/25 05:20:53;;;;;;;10.90;4.10;;;;;;;19.80;63.19;98027.40;106542;1279;25458;-85
2022/06/25 05:23:20;;;;;;;4.80;3.90;;;;;;;19.87;63.05;98029.69;106191;1281;137703;-85
2022/06/25 05:25:47;;;;;;;5.90;3.50;;;;;;;19.96;62.75;98033.25;106371;1279;22564;-86
2022/06/25 05:28:15;;;;;;;5.90;3.20;;;;;;;20.03;62.61;98032.49;106584;1279;137283;-84
2022/06/25 05:30:41;;;;;;;6.30;4.00;;;;;;;20.09;62.33;98034.41;106411;1279;25455;-85
2022/06/25 05:33:08;;;;;;;4.20;3.80;;;;;;;20.16;62.14;98036.48;106278;1280;137982;-84
2022/06/25 05:35:34;;;;;;;3.60;3.30;;;;;;;20.23;62.06;98036.46;106702;1278;25397;-84
2022/06/25 05:38:01;;;;;;;5.10;3.90;;;;;;;20.30;61.86;98036.30;106260;1279;25346;-76
2022/06/25 05:40:28;;;;;;;10.30;4.20;;;;;;;20.36;61.47;98033.96;106585;1277;137459;-82
2022/06/25 05:42:54;;;;;;;4.00;3.50;;;;;;;20.40;60.87;98035.84;106210;1281;22575;-81
2022/06/25 05:45:20;;;;;;;4.40;3.50;;;;;;;20.43;60.68;98033.41;106186;1279;137543;-78
2022/06/25 05:47:48;;;;;;;5.10;3.80;;;;;;;20.49;60.93;98035.63;106065;1279;25341;-79
2022/06/25 05:50:15;;;;;;;8.90;3.40;;;;;;;20.55;61.05;98039.40;106648;1280;22554;-78
2022/06/25 05:52:41;;;;;;;6.00;3.70;;;;;;;20.60;60.74;98040.14;105955;1280;137615;-78
2022/06/25 05:55:08;;;;;;;5.30;3.40;;;;;;;20.66;60.63;98039.36;106276;1280;24406;-78
2022/06/25 05:57:35;;;;;;;3.50;3.20;;;;;;;20.72;60.56;98041.20;105863;1280;137563;-78
2022/06/25 06:00:02;;;;;;;6.50;3.40;;;;;;;20.79;60.14;98038.84;105901;1279;22679;-78
2022/06/25 06:02:38;;;;;;;4.10;3.40;;;;;;;20.87;60.21;98040.36;106152;1279;25248;-78
2022/06/25 06:05:05;;;;;;;4.00;3.50;;;;;;;20.97;60.08;98043.66;105951;1279;137337;-78
2022/06/25 06:07:31;;;;;;;5.80;3.60;;;;;;;21.06;60.10;98040.23;106654;1279;22571;-78
2022/06/25 06:09:57;;;;;;;4.60;3.20;;;;;;;21.15;59.61;98032.52;105642;1280;137292;-79
2022/06/25 06:12:23;;;;;;;6.30;4.00;;;;;;;21.24;59.30;98028.59;106045;1280;22566;-78
2022/06/25 06:14:50;;;;;;;4.20;3.60;;;;;;;21.32;59.24;98023.18;106443;1280;22583;-79
2022/06/25 06:17:16;;;;;;;4.20;3.10;;;;;;;21.43;59.26;98027.02;105825;1280;137797;-78
2022/06/25 06:19:42;;;;;;;4.50;3.30;;;;;;;21.54;58.92;98025.86;106201;1279;25248;-78
2022/06/25 06:22:09;;;;;;;4.30;3.30;;;;;;;21.66;58.78;98022.55;106233;1279;137429;-79
2022/06/25 06:24:35;;;;;;;5.50;3.80;;;;;;;21.77;58.37;98013.95;106232;1279;25482;-80
2022/06/25 06:27:02;;;;;;;4.80;3.60;;;;;;;21.88;58.10;98014.64;106419;1279;137335;-80
2022/06/25 06:29:29;;;;;;;6.00;3.40;;;;;;;21.97;57.78;98015.48;106461;1280;25440;-80
2022/06/25 06:31:56;;;;;;;4.70;3.50;;;;;;;22.08;57.76;98018.26;106598;1279;24306;-79
2022/06/25 06:34:22;;;;;;;4.30;3.30;;;;;;;22.20;57.57;98023.52;106014;1279;137461;-75
2022/06/25 06:36:48;;;;;;;3.80;3.20;;;;;;;22.33;57.14;98021.88;106037;1279;23930;-77
2022/06/25 06:39:29;;;;;;;4.70;3.00;;;;;;;22.47;56.32;98021.88;105783;1277;137802;-76
2022/06/25 06:41:55;;;;;;;5.20;3.10;;;;;;;22.60;55.91;98021.36;106392;1279;22556;-75
2022/06/25 06:44:22;;;;;;;4.00;2.90;;;;;;;22.72;55.68;98024.30;106235;1280;22657;-76
2022/06/25 06:47:03;;;;;;;3.40;2.90;;;;;;;22.88;55.85;98024.13;105941;1276;137086;-77
2022/06/25 06:49:29;;;;;;;5.30;3.10;;;;;;;23.04;55.63;98029.90;106568;1277;22610;-80
2022/06/25 06:51:56;;;;;;;5.50;3.00;;;;;;;23.19;55.12;98035.88;106071;1277;137324;-78
2022/06/25 06:54:22;;;;;;;3.80;2.70;;;;;;;23.33;54.73;98031.67;106000;1280;24441;-77
2022/06/25 06:56:48;;;;;;;4.20;2.70;;;;;;;23.48;54.26;98030.39;105942;1280;25493;-77
2022/06/25 06:59:15;;;;;;;4.60;3.20;;;;;;;23.61;53.67;98031.58;105602;1277;137239;-77
2022/06/25 07:01:56;;;;;;;2.80;2.60;;;;;;;23.72;53.44;98035.46;106312;1277;30530;-79
2022/06/25 07:04:22;;;;;;;5.10;2.70;;;;;;;23.80;53.20;98036.79;106160;1277;137324;-77
2022/06/25 07:06:49;;;;;;;5.90;2.90;;;;;;;23.89;53.17;98040.05;106043;1277;25266;-78
2022/06/25 07:09:15;;;;;;;7.40;2.90;;;;;;;23.99;52.95;98037.71;105843;1277;138207;-79
2022/06/25 07:11:42;;;;;;;4.10;3.30;;;;;;;24.12;52.80;98043.78;105939;1277;26493;-78
2022/06/25 07:14:08;;;;;;;4.30;3.30;;;;;;;24.23;52.11;98041.39;106118;1277;22685;-79
2022/06/25 07:16:35;;;;;;;3.20;2.70;;;;;;;24.31;51.40;98040.39;105736;1280;137199;-79
2022/06/25 07:19:04;;;;;;;7.20;2.70;;;;;;;24.39;51.07;98040.96;106518;1277;24227;-78
2022/06/25 07:21:32;;;;;;;6.20;3.10;;;;;;;24.48;51.22;98041.96;106300;1277;137454;-79
2022/06/25 07:24:02;;;;;;;9.20;3.30;;;;;;;24.60;51.30;98040.48;106189;1277;24306;-78
2022/06/25 07:26:30;;;;;;;5.60;2.90;;;;;;;24.74;50.28;98038.77;106439;1277;22551;-79
2022/06/25 07:28:56;;;;;;;4.30;3.60;;;;;;;24.88;49.38;98039.07;105971;1280;137343;-79
2022/06/25 07:31:24;;;;;;;6.50;3.10;;;;;;;25.02;48.98;98039.65;106400;1279;22582;-79
2022/06/25 07:33:51;;;;;;;5.50;3.00;;;;;;;25.15;47.80;98041.56;106078;1278;137271;-79
2022/06/25 07:36:17;;;;;;;8.40;3.30;;;;;;;25.25;47.24;98041.30;106241;1280;22722;-79
2022/06/25 07:38:44;;;;;;;4.60;3.10;;;;;;;25.34;47.73;98036.17;106222;1280;24319;-79
2022/06/25 07:41:11;;;;;;;5.60;3.30;;;;;;;25.46;47.29;98039.16;106349;1280;137964;-79
2022/06/25 07:43:37;;;;;;;4.40;3.10;;;;;;;25.53;46.94;98037.45;106450;1280;25324;-79
2022/06/25 07:46:04;;;;;;;6.90;2.90;;;;;;;25.61;46.66;98036.30;106020;1277;137188;-78
2022/06/25 07:48:31;;;;;;;4.10;2.80;;;;;;;25.69;45.81;98028.39;105813;1280;22565;-79
2022/06/25 07:53:37;;;;;;;6.50;3.10;;;;;;;25.82;45.12;98030.73;106355;1279;24333;-79
2022/06/25 07:56:05;;;;;;;5.80;3.20;;;;;;;25.88;44.93;98029.48;106175;1279;22602;-79
2022/06/25 07:58:32;;;;;;;7.10;3.10;;;;;;;25.96;45.37;98034.42;106058;1279;137469;-79
2022/06/25 08:00:58;;;;;;;6.80;3.40;;;;;;;26.07;45.27;98031.12;106273;1277;22566;-79
2022/06/25 08:03:25;;;;;;;7.00;3.10;;;;;;;26.19;45.55;98033.17;106330;1278;137606;-79
2022/06/25 08:05:53;;;;;;;7.20;3.10;;;;;;;26.30;45.66;98036.27;106326;1278;25269;-80
2022/06/25 08:08:19;;;;;;;4.40;2.60;;;;;;;26.42;45.38;98030.50;106555;1280;22598;-79
2022/06/25 08:10:45;;;;;;;5.30;2.90;;;;;;;26.54;44.19;98029.29;106443;1280;137289;-79
2022/06/25 08:13:12;;;;;;;6.20;3.50;;;;;;;26.65;43.66;98033.65;106328;1277;25332;-79
2022/06/25 08:15:38;;;;;;;10.00;3.50;;;;;;;26.75;43.35;98032.60;106092;1277;137500;-79
2022/06/25 08:18:20;;;;;;;3.60;2.90;;;;;;;26.87;41.67;98035.45;106305;1277;22594;-79
2022/06/25 08:20:47;;;;;;;5.20;2.30;;;;;;;26.96;40.96;98036.20;106548;1277;22701;-79
2022/06/25 08:23:13;;;;;;;7.90;3.00;;;;;;;27.11;41.14;98038.69;106348;1278;137229;-79
2022/06/25 08:25:40;;;;;;;3.60;2.90;;;;;;;27.26;40.81;98039.35;106229;1280;22587;-79
2022/06/25 08:28:07;;;;;;;6.70;2.50;;;;;;;27.41;40.39;98041.45;106051;1278;137311;-79
2022/06/25 08:30:33;;;;;;;3.70;2.70;;;;;;;27.53;39.77;98041.84;106302;1278;22802;-79
2022/06/25 08:33:00;;;;;;;3.90;2.90;;;;;;;27.66;38.80;98035.96;106496;1279;26631;-79
2022/06/25 08:35:27;;;;;;;4.30;2.80;;;;;;;27.78;38.54;98034.90;106385;1278;22658;-79
2022/06/25 08:37:54;;;;;;;3.70;2.80;;;;;;;27.90;38.27;98032.35;106079;1279;22577;-79
2022/06/25 08:40:35;;;;;;;3.70;2.90;;;;;;;28.05;38.14;98034.48;106337;1279;137889;-79
2022/06/25 08:43:02;;;;;;;9.20;3.00;;;;;;;28.18;38.29;98028.88;106542;1277;22581;-79
2022/06/25 08:45:28;;;;;;;5.60;2.90;;;;;;;28.30;37.74;98029.88;106451;1277;137523;-79
2022/06/25 08:47:59;;;;;;;3.20;2.50;;;;;;;28.39;37.42;98030.14;105842;1279;23439;-78
2022/06/25 08:50:26;;;;;;;2.40;2.10;;;;;;;28.50;37.28;98032.80;106483;1280;23048;-79
2022/06/25 08:53:08;;;;;;;2.50;2.20;;;;;;;28.62;36.99;98029.48;105970;1277;137257;-80
2022/06/25 08:55:38;;;;;;;2.30;1.70;;;;;;;28.73;36.90;98028.61;105865;1280;25467;-80
2022/06/25 08:58:06;;;;;;;2.70;2.10;;;;;;;28.85;36.40;98031.51;105865;1280;137382;-80
2022/06/25 09:00:35;;;;;;;3.30;2.40;;;;;;;28.94;35.68;98028.52;106552;1280;25214;-79
2022/06/25 09:03:03;;;;;;;3.20;2.10;;;;;;;29.05;35.43;98028.30;105905;1280;137476;-79
2022/06/25 09:05:35;;;;;;;3.20;1.90;;;;;;;29.13;34.98;98029.92;106420;1280;23235;-79
2022/06/25 09:08:08;;;;;;;2.30;1.90;;;;;;;29.26;35.69;98029.08;105969;1280;24264;-79
2022/06/25 09:10:37;;;;;;;1.90;1.80;;;;;;;29.46;36.05;98030.13;105369;1280;1070538;-80
2022/06/25 09:13:07;;;;;;;3.20;1.90;;;;;;;29.60;35.14;98027.75;105931;1278;25420;-74
2022/06/25 09:15:42;;;;;;;1.80;1.70;;;;;;;29.72;34.87;98029.50;105990;1278;137753;-74
2022/06/25 09:18:18;;;;;;;2.10;1.90;;;;;;;29.81;33.93;98031.38;105759;1278;24269;-74
2022/06/25 09:21:03;;;;;;;3.20;1.80;;;;;;;29.93;33.75;98033.44;105884;1280;24229;-74
2022/06/25 09:23:31;;;;;;;2.50;1.80;;;;;;;30.04;33.19;98031.88;105701;1277;23064;-75
2022/06/25 09:26:12;;;;;;;2.30;1.80;;;;;;;30.15;33.40;98027.88;106002;1280;22550;-75
2022/06/25 09:28:44;;;;;;;3.40;1.80;;;;;;;30.27;33.34;98030.58;105673;1280;137794;-74
2022/06/25 09:31:10;;;;;;;3.50;2.50;;;;;;;30.40;32.70;98028.45;106002;1280;24108;-74
2022/06/25 09:33:39;;;;;;;16.80;2.30;;;;;;;30.49;32.80;98029.66;105809;1277;137510;-77
2022/06/25 09:36:24;;;;;;;4.00;1.80;;;;;;;30.61;33.18;98030.64;106240;1277;22566;-75
2022/06/25 09:38:50;;;;;;;3.60;1.80;;;;;;;30.75;33.13;98039.65;106023;1277;22657;-75
2022/06/25 09:41:17;;;;;;;3.20;1.90;;;;;;;30.86;32.68;98029.61;106883;1277;137185;-76
2022/06/25 09:43:47;;;;;;;3.30;2.30;;;;;;;30.96;32.88;98034.27;105992;1277;25418;-75
2022/06/25 09:46:14;;;;;;;2.40;2.00;;;;;;;31.03;32.19;98028.46;105800;1280;137187;-76
2022/06/25 09:48:41;;;;;;;5.10;2.50;;;;;;;31.07;32.39;98033.80;105901;1280;22566;-76
2022/06/25 09:51:10;;;;;;;2.20;2.00;;;;;;;31.16;31.92;98028.70;106028;1278;137784;-75
2022/06/25 09:53:52;;;;;;;4.20;2.30;;;;;;;31.23;32.19;98025.86;106431;1277;23486;-76
2022/06/25 09:56:21;;;;;;;3.40;2.50;;;;;;;31.29;31.92;98029.27;106036;1277;22563;-76
2022/06/25 09:58:48;;;;;;;4.70;2.30;;;;;;;31.34;31.20;98033.05;106160;1277;137298;-76
2022/06/25 10:01:17;;;;;;;4.00;2.20;;;;;;;31.42;31.14;98029.71;106040;1277;23292;-76
2022/06/25 10:03:45;;;;;;;2.50;2.20;;;;;;;31.52;31.27;98031.71;105786;1277;138208;-76
2022/06/25 10:06:18;;;;;;;3.30;2.50;;;;;;;31.68;31.63;98028.24;106146;1281;22719;-76
2022/06/25 10:08:50;;;;;;;6.10;2.50;;;;;;;31.90;31.67;98024.92;106343;1279;23965;-76
2022/06/25 10:11:31;;;;;;;3.90;2.50;;;;;;;32.03;31.56;98026.83;105958;1278;137159;-76
2022/06/25 10:14:01;;;;;;;4.40;2.60;;;;;;;32.13;32.08;98029.99;106403;1277;22564;-76
2022/06/25 10:16:31;;;;;;;4.50;2.40;;;;;;;32.06;31.51;98028.78;105983;1277;137351;-76
2022/06/25 10:19:16;;;;;;;6.10;2.60;;;;;;;31.88;31.35;98033.13;106353;1277;22545;-75
2022/06/25 10:21:43;;;;;;;6.20;2.60;;;;;;;31.83;31.44;98027.08;105938;1278;137898;-76
2022/06/25 10:24:10;;;;;;;5.50;2.60;;;;;;;31.91;31.29;98027.98;106140;1277;22671;-76
2022/06/25 10:26:52;;;;;;;5.20;2.60;;;;;;;32.03;31.39;98025.44;105833;1281;22694;-75
2022/06/25 10:29:29;;;;;;;3.30;2.40;;;;;;;32.16;31.69;98021.55;105689;1279;137052;-76
2022/06/25 10:32:12;;;;;;;3.80;2.40;;;;;;;32.33;31.35;98016.40;105837;1278;25324;-76
2022/06/25 10:34:52;;;;;;;4.30;2.20;;;;;;;32.54;31.62;98016.73;105625;1281;137774;-75
2022/06/25 10:37:19;;;;;;;4.10;2.40;;;;;;;32.65;30.03;98013.70;106039;1277;22551;-75
2022/06/25 10:39:53;;;;;;;2.50;2.20;;;;;;;32.66;29.19;98009.50;105919;1277;138048;-76
2022/06/25 10:45:04;;;;;;;4.30;2.50;;;;;;;31.85;30.25;98012.20;105895;1279;137994;-75
2022/06/25 10:47:41;;;;;;;3.80;2.30;;;;;;;31.64;31.27;98010.05;106151;1278;24463;-76
2022/06/25 10:50:21;;;;;;;3.20;2.30;;;;;;;31.76;31.66;98006.38;105907;1280;22599;-76
2022/06/25 10:53:02;;;;;;;3.40;2.20;;;;;;;31.96;30.77;98009.40;105511;1280;137884;-76
2022/06/25 10:55:48;;;;;;;4.80;2.20;;;;;;;32.20;29.93;98006.11;105636;1279;24415;-75
2022/06/25 10:58:23;;;;;;;2.60;2.10;;;;;;;32.37;29.53;98000.46;105898;1281;137710;-76
2022/06/25 11:00:54;;;;;;;8.20;2.60;;;;;;;32.23;29.34;98002.23;105881;1280;23327;-76
2022/06/25 11:03:35;;;;;;;6.00;2.20;;;;;;;31.95;29.80;98000.80;105657;1281;137437;-76
2022/06/25 11:06:22;;;;;;;3.40;2.20;;;;;;;31.79;30.43;97997.55;105565;1281;22608;-75
2022/06/25 11:08:49;;;;;;;9.40;2.50;;;;;;;31.74;30.72;97998.96;105798;1278;22593;-76
2022/06/25 11:11:28;;;;;;;5.40;2.50;;;;;;;31.95;30.26;97999.75;105508;1277;137319;-77
2022/06/25 11:13:56;;;;;;;5.00;2.20;;;;;;;32.26;30.08;98000.54;105797;1279;22558;-76
2022/06/25 11:16:37;;;;;;;2.50;2.10;;;;;;;32.58;29.89;97998.23;106149;1278;137429;-76
2022/06/25 11:19:19;;;;;;;3.50;1.90;;;;;;;32.57;29.16;97998.30;105500;1278;22545;-74
2022/06/25 11:21:47;;;;;;;7.80;2.10;;;;;;;32.66;28.65;97999.91;105501;1279;137755;-75
2022/06/25 11:24:29;;;;;;;6.30;1.90;;;;;;;32.68;28.70;98000.33;105861;1280;22583;-75
2022/06/25 11:29:49;;;;;;;8.80;2.70;;;;;;;32.64;28.97;97999.11;106007;1281;24224;-76
2022/06/25 11:32:30;;;;;;;3.30;2.00;;;;;;;32.89;28.28;97996.98;106170;1278;22578;-75
2022/06/25 11:34:58;;;;;;;2.30;2.10;;;;;;;33.11;27.70;97995.65;105980;1278;137323;-76
2022/06/25 11:37:26;;;;;;;1.90;1.80;;;;;;;33.40;27.75;97999.36;105818;1278;23404;-76
2022/06/25 11:39:52;;;;;;;2.50;1.70;;;;;;;33.63;27.22;97999.27;105742;1281;137353;-76
2022/06/25 11:42:19;;;;;;;2.10;1.80;;;;;;;33.84;26.94;97997.55;105887;1278;22645;-76
2022/06/25 11:44:56;;;;;;;1.80;1.70;;;;;;;34.09;26.59;97994.00;105716;1277;23029;-76
2022/06/25 11:47:25;;;;;;;1.70;1.60;;;;;;;34.26;25.94;97993.41;105779;1277;137120;-75
2022/06/25 11:49:53;;;;;;;2.10;1.70;;;;;;;34.03;25.85;97991.53;105714;1277;23009;-76
2022/06/25 11:52:23;;;;;;;2.30;1.90;;;;;;;34.06;25.99;97992.09;105812;1277;137742;-76
2022/06/25 11:54:51;;;;;;;2.20;2.00;;;;;;;33.94;25.33;97989.66;105675;1278;24266;-75
2022/06/25 11:57:21;;;;;;;3.70;2.50;;;;;;;34.04;25.16;97992.17;105601;1278;137767;-76